Time;durP1;ratioP1;P1;durP2;ratioP2;P2;SDS_P1;SDS_P2;PMS_P1;PMS_P2;Temp;Humidity;BMP_temperature;BMP_pressure;BME280_temperature;BME280_humidity;BME280_pressure;Samples;Min_cycle;Max_cycle;Signal;HPM_P1;HPM_P2
2022/06/01 00:00:31;;;;;;;4.63;2.80;;;;;;;9.85;78.20;97157.78;5064081;28;20037;-66
2022/06/01 00:02:58;;;;;;;4.65;2.70;;;;;;;9.83;78.61;97154.50;5064230;28;20037;-65
2022/06/01 00:05:24;;;;;;;3.35;2.30;;;;;;;9.76;78.47;97144.69;5064869;28;20045;-66
2022/06/01 00:07:51;;;;;;;6.15;2.88;;;;;;;9.80;78.15;97146.91;5065055;28;20040;-66
2022/06/01 00:10:19;;;;;;;5.50;2.83;;;;;;;9.90;77.60;97149.72;5064312;28;20122;-66
2022/06/01 00:12:45;;;;;;;4.35;2.88;;;;;;;9.94;77.42;97148.16;5065992;28;20043;-66
2022/06/01 00:15:14;;;;;;;5.63;2.65;;;;;;;9.92;77.33;97152.19;5065472;28;20049;-66
2022/06/01 00:17:41;;;;;;;4.25;2.42;;;;;;;9.90;77.17;97149.72;5065041;28;20044;-66
2022/06/01 00:20:08;;;;;;;5.30;2.85;;;;;;;9.87;77.92;97148.34;5064697;28;20051;-66
2022/06/01 00:22:36;;;;;;;7.60;3.10;;;;;;;9.87;77.98;97137.53;5064758;28;20564;-66
2022/06/01 00:25:06;;;;;;;5.75;3.03;;;;;;;9.90;77.69;97133.50;5065220;28;20041;-66
2022/06/01 00:27:33;;;;;;;4.53;2.90;;;;;;;9.83;77.90;97140.97;5062397;28;20532;-66
2022/06/01 00:30:01;;;;;;;4.90;2.80;;;;;;;9.81;77.98;97143.13;5066382;28;20098;-65
2022/06/01 00:32:27;;;;;;;4.30;2.80;;;;;;;9.76;77.92;97143.88;5063468;28;20036;-65
2022/06/01 00:34:54;;;;;;;7.55;3.15;;;;;;;9.66;78.43;97152.66;5072681;28;20040;-66
2022/06/01 00:37:21;;;;;;;4.72;2.80;;;;;;;9.62;78.28;97149.66;5064411;28;20040;-66
2022/06/01 00:39:47;;;;;;;5.85;2.42;;;;;;;9.62;78.71;97155.06;5065303;28;20044;-66
2022/06/01 00:42:17;;;;;;;4.22;2.40;;;;;;;9.56;78.50;97160.66;5064547;28;20457;-65
2022/06/01 00:44:45;;;;;;;8.57;3.05;;;;;;;9.56;78.54;97157.97;5063591;28;20044;-65
2022/06/01 00:47:11;;;;;;;5.85;2.97;;;;;;;9.31;80.22;97159.25;5064492;28;20037;-65
2022/06/01 00:49:46;;;;;;;4.05;2.75;;;;;;;9.43;79.12;97165.38;5064714;28;20060;-65
2022/06/01 00:52:14;;;;;;;4.70;3.08;;;;;;;9.46;79.01;97148.66;5064009;28;20059;-66
2022/06/01 00:54:41;;;;;;;5.95;2.90;;;;;;;9.51;78.81;97147.88;5065662;28;20040;-65
2022/06/01 00:57:11;;;;;;;4.20;2.78;;;;;;;9.55;78.66;97148.22;5063439;28;20043;-66
2022/06/01 00:59:44;;;;;;;4.45;2.72;;;;;;;9.62;77.91;97149.66;5064896;28;20123;-65
2022/06/01 01:02:11;;;;;;;6.38;2.85;;;;;;;9.58;78.59;97148.53;5063800;28;20048;-66
2022/06/01 01:04:39;;;;;;;5.30;2.75;;;;;;;9.44;78.90;97142.66;5064736;28;20082;-66
2022/06/01 01:07:12;;;;;;;6.47;3.10;;;;;;;9.34;79.54;97143.38;5063403;28;20055;-66
2022/06/01 01:09:39;;;;;;;5.97;2.90;;;;;;;9.27;79.81;97141.91;5060306;28;20044;-66
2022/06/01 01:12:09;;;;;;;6.50;3.00;;;;;;;9.28;79.59;97151.66;5062499;28;20132;-66
2022/06/01 01:14:40;;;;;;;4.00;2.40;;;;;;;9.39;79.25;97152.63;5064218;28;20036;-66
2022/06/01 01:17:06;;;;;;;4.95;3.25;;;;;;;9.43;78.49;97154.56;5055795;28;20041;-66
2022/06/01 01:19:38;;;;;;;5.43;2.90;;;;;;;9.32;79.03;97158.22;5063205;28;20040;-65
2022/06/01 01:22:34;;;;;;;4.80;2.83;;;;;;;9.37;78.65;97142.06;5061854;28;20539;-65
2022/06/01 01:25:13;;;;;;;5.20;2.60;;;;;;;9.45;78.29;97144.31;5062482;28;20063;-65
2022/06/01 01:27:40;;;;;;;5.03;2.83;;;;;;;9.51;77.96;97137.06;5061831;28;20033;-66
2022/06/01 01:30:55;;;;;;;4.75;3.05;;;;;;;9.54;77.02;97146.59;5062450;28;20036;-65
2022/06/01 01:33:26;;;;;;;4.18;2.58;;;;;;;9.52;77.32;97143.31;5061802;28;20052;-65
2022/06/01 01:35:54;;;;;;;;;;;;;;;9.47;77.79;97154.88;5062688;28;20736;-65
2022/06/01 01:38:24;;;;;;;6.47;2.72;;;;;;;9.46;77.79;97150.53;5064884;28;19928;-66
2022/06/01 01:41:09;;;;;;;4.75;2.78;;;;;;;9.40;78.15;97133.44;5062984;28;20041;-65
2022/06/01 01:44:27;;;;;;;5.30;2.78;;;;;;;9.33;78.25;97138.22;5057120;28;20063;-66
2022/06/01 01:46:56;;;;;;;6.68;2.88;;;;;;;9.52;77.19;97137.91;5024450;28;20068;-65
2022/06/01 01:49:32;;;;;;;5.75;2.65;;;;;;;9.63;76.66;97131.56;5046818;28;20052;-66
2022/06/01 01:52:11;;;;;;;5.03;2.80;;;;;;;9.55;77.17;97140.91;5063115;28;20051;-65
2022/06/01 01:55:01;;;;;;;7.45;2.53;;;;;;;9.45;77.34;97138.09;5056931;28;20036;-65
2022/06/01 01:57:53;;;;;;;4.25;2.85;;;;;;;9.42;77.48;97146.69;5061386;28;20127;-66
2022/06/01 02:00:28;;;;;;;6.82;2.65;;;;;;;9.41;77.60;97145.91;5061938;28;20045;-65
2022/06/01 02:03:21;;;;;;;5.35;2.83;;;;;;;9.36;77.74;97151.22;5063333;28;20040;-65
2022/06/01 02:06:05;;;;;;;4.00;2.50;;;;;;;9.31;77.80;97149.28;5063463;28;20051;-66
2022/06/01 02:08:33;;;;;;;5.28;3.03;;;;;;;9.29;78.08;97153.28;5061005;28;20041;-66
2022/06/01 02:13:52;;;;;;;5.45;2.88;;;;;;;9.15;78.77;97147.41;5059467;28;20043;-66
2022/06/01 02:16:27;;;;;;;4.68;2.92;;;;;;;9.18;78.46;97145.03;5062161;28;20396;-66
2022/06/01 02:18:58;;;;;;;4.15;2.47;;;;;;;9.26;77.88;97148.38;5063703;28;20691;-65
2022/06/01 02:21:27;;;;;;;4.93;2.67;;;;;;;9.26;77.93;97148.38;5063236;28;20081;-66
2022/06/01 02:23:58;;;;;;;4.72;2.45;;;;;;;9.24;77.83;97138.66;5065818;28;20549;-65
2022/06/01 02:26:26;;;;;;;7.43;2.92;;;;;;;9.17;78.22;97134.47;5068978;28;20056;-65
2022/06/01 02:29:00;;;;;;;5.78;3.15;;;;;;;9.04;78.80;97138.34;5067759;28;20063;-65
2022/06/01 02:31:29;;;;;;;5.68;2.90;;;;;;;8.95;79.29;97138.75;5067806;28;20036;-66
2022/06/01 02:33:57;;;;;;;5.55;2.75;;;;;;;8.92;79.41;97138.44;5069128;28;20508;-65
2022/06/01 02:36:26;;;;;;;9.75;3.40;;;;;;;8.87;79.63;97135.66;5068134;28;20044;-66
2022/06/01 02:38:56;;;;;;;5.90;3.30;;;;;;;8.83;79.47;97146.13;5068161;28;20075;-65
2022/06/01 02:44:08;;;;;;;6.30;3.30;;;;;;;8.73;80.03;97148.69;5068599;28;20052;-65
2022/06/01 02:46:35;;;;;;;6.63;4.10;;;;;;;8.70;80.20;97141.91;5067376;28;20044;-65
2022/06/01 02:49:01;;;;;;;5.63;2.97;;;;;;;8.78;80.32;97144.19;5067562;28;20048;-66
2022/06/01 02:51:28;;;;;;;6.60;3.30;;;;;;;8.84;79.48;97143.19;5066742;28;20066;-65
2022/06/01 02:53:55;;;;;;;7.45;3.13;;;;;;;8.86;79.20;97153.75;5072006;28;20530;-66
2022/06/01 02:56:21;;;;;;;5.28;3.10;;;;;;;8.80;79.65;97152.84;5067055;28;20036;-65
2022/06/01 02:58:49;;;;;;;6.28;3.35;;;;;;;8.83;79.37;97146.97;5067797;28;20048;-66
2022/06/01 03:01:15;;;;;;;6.78;3.38;;;;;;;8.72;79.91;97153.25;5068538;28;20036;-65
2022/06/01 03:03:42;;;;;;;5.25;2.92;;;;;;;8.66;80.03;97148.84;5068113;28;20062;-66
2022/06/01 03:06:08;;;;;;;4.95;2.97;;;;;;;8.70;79.96;97142.69;5066144;28;20052;-65
2022/06/01 03:08:35;;;;;;;6.05;3.33;;;;;;;8.70;79.70;97136.50;5064490;28;20071;-66
2022/06/01 03:11:02;;;;;;;4.88;3.13;;;;;;;8.64;79.79;97141.00;5068354;28;20045;-65
2022/06/01 03:13:30;;;;;;;7.57;4.32;;;;;;;8.54;80.44;97148.91;5067526;28;20055;-66
2022/06/01 03:15:56;;;;;;;4.70;3.17;;;;;;;8.37;81.52;97141.56;5068087;28;20051;-66
2022/06/01 03:18:23;;;;;;;5.25;3.70;;;;;;;8.32;81.94;97144.19;5067893;28;20111;-66
2022/06/01 03:20:50;;;;;;;6.70;3.15;;;;;;;8.20;81.84;97150.47;5061484;28;20049;-66
2022/06/01 03:23:19;;;;;;;6.40;3.20;;;;;;;8.21;81.80;97151.28;5065875;28;20044;-66
2022/06/01 03:25:45;;;;;;;5.60;2.97;;;;;;;8.25;82.08;97151.63;5064550;28;20048;-65
2022/06/01 03:28:12;;;;;;;6.22;3.72;;;;;;;8.26;81.73;97145.97;5064867;28;20273;-65
2022/06/01 03:30:39;;;;;;;6.72;3.50;;;;;;;8.30;81.42;97143.63;5078477;28;20044;-65
2022/06/01 03:33:05;;;;;;;5.35;3.33;;;;;;;8.28;81.48;97151.13;5063498;28;20510;-65
2022/06/01 03:35:33;;;;;;;5.93;3.42;;;;;;;8.42;80.96;97149.78;5064333;28;20054;-65
2022/06/01 03:38:00;;;;;;;4.78;2.85;;;;;;;8.52;80.67;97148.31;5063149;28;20052;-65
2022/06/01 03:40:29;;;;;;;6.32;3.15;;;;;;;8.53;80.11;97144.56;5064484;28;20064;-65
2022/06/01 03:42:56;;;;;;;7.07;3.13;;;;;;;8.58;80.10;97148.19;5065733;28;20636;-66
2022/06/01 03:48:09;;;;;;;8.85;2.88;;;;;;;8.69;79.67;97149.16;5064158;28;20834;-65
2022/06/01 03:50:36;;;;;;;6.35;3.42;;;;;;;8.72;79.24;97145.16;5066313;28;20044;-65
2022/06/01 03:53:03;;;;;;;4.75;2.85;;;;;;;8.68;79.54;97150.25;5077441;28;20075;-65
2022/06/01 03:55:31;;;;;;;6.72;3.22;;;;;;;8.65;79.60;97150.72;5065379;28;20044;-65
2022/06/01 03:57:57;;;;;;;4.97;3.03;;;;;;;8.74;79.34;97153.00;5066721;28;20066;-65
2022/06/01 04:00:25;;;;;;;8.50;3.08;;;;;;;8.75;79.03;97154.63;5069535;28;20052;-65
2022/06/01 04:02:52;;;;;;;4.53;2.80;;;;;;;8.75;79.02;97152.78;5066096;28;20735;-69
2022/06/01 04:05:21;;;;;;;5.20;3.00;;;;;;;8.73;79.38;97149.47;5067107;28;20149;-65
2022/06/01 04:07:48;;;;;;;7.25;3.10;;;;;;;8.75;79.32;97151.94;5067049;28;20040;-66
2022/06/01 04:10:15;;;;;;;5.65;2.97;;;;;;;8.74;79.30;97156.53;5063481;28;20119;-66
2022/06/01 04:12:42;;;;;;;5.80;3.78;;;;;;;8.75;79.59;97154.63;5063365;28;20036;-65
2022/06/01 04:15:09;;;;;;;6.80;3.33;;;;;;;8.69;79.65;97153.72;5064824;28;20041;-65
2022/06/01 04:17:37;;;;;;;5.43;3.05;;;;;;;8.75;79.68;97157.34;5064537;28;20462;-65
2022/06/01 04:20:05;;;;;;;5.75;3.25;;;;;;;8.90;79.02;97157.59;5060165;28;20040;-65
2022/06/01 04:22:32;;;;;;;7.32;2.95;;;;;;;9.05;78.41;97159.72;5055190;28;20067;-66
2022/06/01 04:24:59;;;;;;;6.30;3.50;;;;;;;9.12;77.95;97151.44;5063574;28;20043;-65
2022/06/01 04:27:25;;;;;;;5.80;2.95;;;;;;;9.13;78.00;97158.47;5063708;28;20048;-65
2022/06/01 04:29:52;;;;;;;7.05;3.40;;;;;;;9.28;77.36;97149.75;5071855;28;20083;-65
2022/06/01 04:32:31;;;;;;;4.53;2.83;;;;;;;9.35;77.18;97147.69;5075346;28;20039;-65
2022/06/01 04:34:59;;;;;;;6.03;2.92;;;;;;;9.49;76.57;97150.03;5057046;28;20044;-65
2022/06/01 04:37:26;;;;;;;4.75;2.85;;;;;;;9.75;75.56;97153.88;5063150;28;20098;-65
2022/06/01 04:39:52;;;;;;;6.43;3.00;;;;;;;9.94;74.75;97150.84;5061228;28;20052;-65
2022/06/01 04:42:19;;;;;;;7.03;2.65;;;;;;;10.01;74.96;97153.34;5062284;28;20052;-66
2022/06/01 04:44:46;;;;;;;5.25;2.78;;;;;;;10.08;74.69;97151.28;5065541;28;20048;-64
2022/06/01 04:47:13;;;;;;;4.40;2.55;;;;;;;10.24;73.61;97157.66;5063918;28;20060;-65
2022/06/01 04:49:39;;;;;;;8.25;2.72;;;;;;;10.31;74.06;97148.53;5059318;28;20066;-65
2022/06/01 04:52:08;;;;;;;4.80;2.50;;;;;;;10.51;72.99;97159.56;5058835;28;20536;-65
2022/06/01 04:54:34;;;;;;;4.00;2.50;;;;;;;10.63;72.54;97154.00;5059120;28;20205;-66
2022/06/01 04:57:01;;;;;;;5.20;2.50;;;;;;;10.69;72.81;97162.16;5063185;28;20044;-65
2022/06/01 04:59:27;;;;;;;5.85;2.80;;;;;;;10.70;72.31;97156.50;5062379;28;20045;-65
2022/06/01 05:01:54;;;;;;;5.03;3.00;;;;;;;10.79;72.08;97154.94;5062398;28;20048;-73
2022/06/01 05:04:21;;;;;;;6.47;2.70;;;;;;;10.88;71.62;97151.75;5062709;28;20107;-65
2022/06/01 05:06:47;;;;;;;6.75;2.67;;;;;;;11.03;70.89;97151.84;5073047;28;20055;-65
2022/06/01 05:09:14;;;;;;;5.57;2.45;;;;;;;11.19;70.01;97151.97;5061928;28;20051;-65
2022/06/01 05:11:41;;;;;;;6.55;2.50;;;;;;;11.37;70.31;97153.44;5060709;28;20515;-65
2022/06/01 05:14:07;;;;;;;10.48;4.20;;;;;;;11.41;69.93;97157.25;5063022;28;20055;-65
2022/06/01 05:16:34;;;;;;;5.03;3.03;;;;;;;11.37;70.53;97145.28;5062900;28;20519;-65
2022/06/01 05:19:00;;;;;;;4.25;2.30;;;;;;;11.41;69.67;97151.81;5062416;28;20113;-65
2022/06/01 05:21:27;;;;;;;8.07;2.63;;;;;;;11.45;69.34;97152.09;5074757;28;20055;-65
2022/06/01 05:23:54;;;;;;;5.32;3.03;;;;;;;11.55;69.45;97144.03;5062338;28;20051;-65
2022/06/01 05:26:20;;;;;;;4.30;2.42;;;;;;;11.67;68.91;97140.28;5061465;28;20113;-65
2022/06/01 05:28:47;;;;;;;3.75;2.25;;;;;;;11.69;69.27;97148.97;5078751;28;20063;-65
2022/06/01 05:31:14;;;;;;;4.38;2.47;;;;;;;11.72;68.81;97140.28;5064902;28;20044;-65
2022/06/01 05:33:45;;;;;;;4.75;2.65;;;;;;;11.82;68.24;97144.94;5065661;28;20045;-65
2022/06/01 05:36:13;;;;;;;4.28;2.50;;;;;;;11.96;67.94;97145.28;5067534;28;20705;-65
2022/06/01 05:38:40;;;;;;;4.38;2.53;;;;;;;12.16;66.83;97149.16;5065557;28;20059;-65
2022/06/01 05:41:07;;;;;;;5.22;2.80;;;;;;;12.41;66.39;97147.56;5072535;28;20036;-65
2022/06/01 05:43:34;;;;;;;4.97;2.90;;;;;;;12.57;66.98;97143.78;5064982;28;20052;-65
2022/06/01 05:46:02;;;;;;;4.47;2.17;;;;;;;12.62;67.08;97151.13;5047409;28;20419;-65
2022/06/01 05:48:29;;;;;;;3.80;2.22;;;;;;;12.68;66.27;97141.88;5059830;28;20511;-65
2022/06/01 05:50:58;;;;;;;4.50;2.13;;;;;;;12.73;66.65;97151.94;5064026;28;20054;-65
2022/06/01 05:53:24;;;;;;;5.28;2.20;;;;;;;12.84;66.54;97145.44;5063629;28;20439;-66
2022/06/01 05:55:51;;;;;;;3.80;2.20;;;;;;;12.94;66.38;97151.94;5060982;28;20040;-65
2022/06/01 05:58:21;;;;;;;5.85;2.45;;;;;;;13.08;66.22;97149.50;5068406;28;20044;-65
2022/06/01 06:00:49;;;;;;;3.58;2.10;;;;;;;13.20;65.25;97152.72;5068725;28;20045;-65
2022/06/01 06:03:18;;;;;;;5.10;2.10;;;;;;;13.31;64.88;97153.53;5055534;28;20098;-65
2022/06/01 06:08:39;;;;;;;3.47;2.00;;;;;;;13.53;64.78;97145.06;5052960;28;20044;-65
2022/06/01 06:11:14;;;;;;;5.10;2.20;;;;;;;13.57;64.33;97144.50;5056495;28;20128;-65
2022/06/01 06:13:41;;;;;;;4.38;2.08;;;;;;;13.67;64.50;97140.94;5061908;28;20504;-65
2022/06/01 06:16:08;;;;;;;6.53;2.35;;;;;;;13.81;64.05;97147.41;5067927;28;20564;-65
2022/06/01 06:18:35;;;;;;;3.25;1.80;;;;;;;13.95;64.29;97144.06;5053850;28;20098;-65
2022/06/01 06:21:03;;;;;;;7.97;2.17;;;;;;;14.08;64.15;97146.19;5055459;28;20044;-65
2022/06/01 06:23:30;;;;;;;5.28;2.00;;;;;;;14.25;64.36;97150.44;5054621;28;20143;-66
2022/06/01 06:25:57;;;;;;;4.00;1.90;;;;;;;14.33;63.28;97151.78;5059260;28;20891;-65
2022/06/01 06:28:25;;;;;;;4.50;2.10;;;;;;;14.44;63.34;97151.44;5065586;28;20055;-65
2022/06/01 06:30:51;;;;;;;6.07;2.15;;;;;;;14.52;63.21;97154.66;5062291;28;20454;-65
2022/06/01 06:33:18;;;;;;;4.55;2.00;;;;;;;14.70;63.10;97148.53;5057596;28;20493;-65
2022/06/01 06:35:45;;;;;;;4.50;1.73;;;;;;;14.88;62.48;97148.13;5071638;28;20105;-65
2022/06/01 06:38:12;;;;;;;5.38;1.83;;;;;;;15.01;61.27;97152.94;5065395;28;20537;-65
2022/06/01 06:40:39;;;;;;;4.82;2.00;;;;;;;15.14;62.13;97158.81;5062078;28;20052;-65
2022/06/01 06:43:05;;;;;;;4.95;2.20;;;;;;;15.18;61.33;97146.22;5064880;28;20093;-66
2022/06/01 06:45:32;;;;;;;4.82;2.08;;;;;;;15.25;61.20;97146.69;5082423;28;20106;-65
2022/06/01 06:47:58;;;;;;;9.63;2.20;;;;;;;15.34;60.52;97147.69;5073043;28;20052;-65
2022/06/01 06:50:25;;;;;;;3.63;1.60;;;;;;;15.46;61.09;97154.69;5062628;28;20466;-66
2022/06/01 06:53:11;;;;;;;7.03;2.78;;;;;;;15.53;61.44;97151.59;5052895;28;20044;-65
2022/06/01 06:55:39;;;;;;;6.07;2.17;;;;;;;15.66;59.75;97150.09;5052086;28;20486;-65
2022/06/01 06:58:09;;;;;;;3.08;1.55;;;;;;;15.85;56.47;97144.69;5050740;28;20516;-66
2022/06/01 07:00:37;;;;;;;3.43;1.50;;;;;;;16.14;55.26;97148.44;5060521;28;20040;-66
2022/06/01 07:03:04;;;;;;;3.85;1.60;;;;;;;16.23;54.03;97149.41;5061271;28;20520;-65
2022/06/01 07:08:17;;;;;;;3.10;1.48;;;;;;;16.47;55.00;97152.06;5066991;28;20050;-65
2022/06/01 07:10:44;;;;;;;3.38;1.67;;;;;;;16.61;53.56;97152.13;5062603;28;20095;-65
2022/06/01 07:13:11;;;;;;;2.83;1.67;;;;;;;16.66;53.27;97151.22;5065340;28;20424;-65
2022/06/01 07:15:38;;;;;;;3.58;1.70;;;;;;;16.72;53.34;97149.22;5067414;28;20055;-65
2022/06/01 07:18:05;;;;;;;6.55;1.80;;;;;;;16.73;54.08;97156.34;5068018;28;20058;-66
2022/06/01 07:20:32;;;;;;;2.55;1.50;;;;;;;16.93;50.45;97152.47;5067040;28;20147;-66
2022/06/01 07:22:59;;;;;;;3.95;1.33;;;;;;;17.18;51.29;97144.97;5066164;28;20123;-65
2022/06/01 07:25:26;;;;;;;4.45;1.70;;;;;;;17.26;51.45;97152.47;5067188;28;20488;-66
2022/06/01 07:27:54;;;;;;;3.97;1.63;;;;;;;17.27;49.13;97145.88;5068240;28;20131;-65
2022/06/01 07:30:21;;;;;;;8.02;1.50;;;;;;;17.28;50.09;97150.22;5067731;28;20044;-66
2022/06/01 07:32:48;;;;;;;2.58;1.42;;;;;;;17.29;50.47;97154.59;5066481;28;20507;-66
2022/06/01 07:35:16;;;;;;;3.92;1.70;;;;;;;17.48;48.50;97150.16;5068019;28;20040;-65
2022/06/01 07:43:30;;;;;;;3.35;1.20;;;;;;;17.77;47.36;97151.78;5067906;28;20068;-64
2022/06/01 07:45:57;;;;;;;3.13;1.30;;;;;;;17.85;46.95;97153.00;5067343;28;20083;-65
2022/06/01 07:48:23;;;;;;;3.72;1.30;;;;;;;17.93;47.12;97146.81;5063245;28;20040;-65
2022/06/01 07:51:10;;;;;;;2.97;1.30;;;;;;;17.85;46.19;97147.53;5069398;28;20108;-64
2022/06/01 07:53:37;;;;;;;4.63;1.10;;;;;;;18.05;42.88;97147.09;5063079;28;20045;-65
2022/06/01 07:56:03;;;;;;;1.88;1.17;;;;;;;18.49;43.32;97151.38;5070717;28;20052;-65
2022/06/01 07:58:30;;;;;;;2.28;1.20;;;;;;;18.67;43.01;97153.16;5063944;28;20098;-65
2022/06/01 08:00:56;;;;;;;2.42;1.17;;;;;;;18.75;41.52;97146.13;5064186;28;20052;-65
2022/06/01 08:03:23;;;;;;;4.75;1.63;;;;;;;18.65;43.58;97152.66;5075815;28;20488;-65
2022/06/01 08:05:50;;;;;;;3.97;1.55;;;;;;;18.74;46.34;97151.91;5064716;28;20049;-65
2022/06/01 08:08:16;;;;;;;2.92;1.55;;;;;;;18.69;49.24;97147.38;5068848;28;20056;-64
2022/06/01 08:10:43;;;;;;;5.57;2.22;;;;;;;18.49;51.25;97154.94;5064308;28;20051;-65
2022/06/01 08:13:12;;;;;;;3.70;1.65;;;;;;;18.44;51.82;97152.31;5059660;28;20633;-65
2022/06/01 08:15:38;;;;;;;3.22;1.67;;;;;;;18.40;50.35;97151.31;5064058;28;20500;-65
2022/06/01 08:18:06;;;;;;;3.40;1.63;;;;;;;18.40;50.66;97148.56;5067759;28;20059;-65
2022/06/01 08:20:33;;;;;;;6.85;1.80;;;;;;;18.33;49.82;97152.53;5074399;28;20813;-65
2022/06/01 08:23:00;;;;;;;6.15;1.90;;;;;;;18.15;49.79;97150.75;5055073;28;20052;-64
2022/06/01 08:25:28;;;;;;;4.88;2.28;;;;;;;18.40;50.18;97140.34;5073077;28;20048;-65
2022/06/01 08:27:55;;;;;;;2.45;1.30;;;;;;;18.57;43.81;97151.47;5070635;28;20044;-65
2022/06/01 08:30:23;;;;;;;4.45;1.35;;;;;;;18.84;43.33;97154.41;5065794;28;20051;-64
2022/06/01 08:32:51;;;;;;;3.75;1.10;;;;;;;19.34;41.66;97152.63;5063113;28;20515;-65
2022/06/01 08:35:21;;;;;;;2.35;1.17;;;;;;;19.35;41.91;97166.03;5066744;28;20037;-65
2022/06/01 08:37:48;;;;;;;3.13;1.30;;;;;;;19.62;40.89;97156.00;5064641;28;20051;-65
2022/06/01 08:40:20;;;;;;;1.45;1.02;;;;;;;19.46;39.96;97155.59;5053657;28;20045;-64
2022/06/01 08:42:57;;;;;;;3.58;1.30;;;;;;;19.57;39.94;97155.34;5062822;28;21403;-65
2022/06/01 08:45:25;;;;;;;2.38;1.15;;;;;;;19.32;41.38;97166.66;5064742;28;20037;-65
2022/06/01 08:47:52;;;;;;;2.17;1.20;;;;;;;19.36;40.44;97175.91;5074815;28;20048;-65
2022/06/01 08:50:32;;;;;;;2.53;1.30;;;;;;;19.39;41.54;97181.91;5059983;28;20045;-65
2022/06/01 08:53:02;;;;;;;6.22;1.55;;;;;;;19.35;41.94;97174.28;5063949;28;20062;-64
2022/06/01 08:55:48;;;;;;;1.52;0.93;;;;;;;19.57;40.33;97191.84;5062452;28;20036;-65
2022/06/01 08:58:19;;;;;;;3.67;1.20;;;;;;;19.62;40.96;97166.19;5059595;28;20759;-65
2022/06/01 09:01:11;;;;;;;2.23;1.10;;;;;;;19.58;38.60;97159.69;5060559;28;20626;-65
2022/06/01 09:04:07;;;;;;;1.73;1.00;;;;;;;19.60;36.66;97169.25;5051941;28;20059;-64
2022/06/01 09:06:51;;;;;;;5.32;1.00;;;;;;;19.77;35.83;97175.94;5061866;28;20060;-64
2022/06/01 09:09:30;;;;;;;6.35;2.00;;;;;;;20.26;35.66;97180.59;5069128;28;20131;-64
2022/06/01 09:11:57;;;;;;;1.83;0.88;;;;;;;20.43;36.21;97174.34;5072078;28;20059;-64
2022/06/01 09:14:34;;;;;;;5.10;1.10;;;;;;;20.03;34.23;97197.22;5057314;28;20055;-65
2022/06/01 09:17:02;;;;;;;2.80;1.00;;;;;;;20.10;34.36;97177.50;5063511;28;20052;-64
2022/06/01 09:22:39;;;;;;;10.13;1.25;;;;;;;19.88;35.30;97181.94;5060842;28;20093;-64
2022/06/01 09:25:18;;;;;;;2.28;1.00;;;;;;;19.91;34.20;97178.56;5061732;28;20416;-64
2022/06/01 09:27:51;;;;;;;2.25;0.93;;;;;;;20.12;34.28;97176.06;5050941;28;20111;-64
2022/06/01 09:30:39;;;;;;;2.03;0.88;;;;;;;20.30;35.35;97159.59;5049939;28;20060;-64
2022/06/01 09:33:29;;;;;;;2.03;0.90;;;;;;;20.50;34.23;97169.16;5052280;28;20049;-64
2022/06/01 09:36:21;;;;;;;2.67;1.00;;;;;;;20.46;33.65;97170.13;5059380;28;20110;-64
2022/06/01 09:38:54;;;;;;;2.08;1.00;;;;;;;20.57;32.63;97171.44;5065411;28;20044;-64
2022/06/01 09:41:23;;;;;;;3.63;0.93;;;;;;;20.58;33.46;97186.00;5057712;28;20433;-64
2022/06/01 09:43:54;;;;;;;2.63;1.00;;;;;;;20.93;33.34;97188.75;5054615;28;20462;-65
2022/06/01 09:46:35;;;;;;;1.63;0.80;;;;;;;21.01;33.08;97198.97;5062637;28;20060;-64
2022/06/01 09:49:04;;;;;;;;;;;;;;;20.74;33.39;97198.13;5059122;28;20056;-62
2022/06/01 09:51:37;;;;;;;3.42;1.00;;;;;;;20.58;33.85;97189.56;5056357;28;19958;-62
2022/06/01 09:54:13;;;;;;;3.55;0.88;;;;;;;20.84;34.59;97197.00;5069282;28;20599;-62
2022/06/01 09:56:48;;;;;;;1.92;0.90;;;;;;;20.99;35.59;97190.22;5064220;28;20040;-61
2022/06/01 10:08:12;;;;;;;2.67;1.10;;;;;;;20.47;34.02;97197.31;5062001;28;20092;-65
2022/06/01 10:10:40;;;;;;;3.30;0.82;;;;;;;20.18;32.41;97187.72;5066605;28;20047;-66
2022/06/01 10:13:07;;;;;;;1.95;1.20;;;;;;;20.66;34.62;97180.50;5062965;28;20210;-64
2022/06/01 10:15:42;;;;;;;2.55;1.00;;;;;;;20.84;33.44;97191.50;5062141;28;20052;-65
2022/06/01 10:18:13;;;;;;;6.53;1.25;;;;;;;20.65;32.34;97186.31;5074560;28;20058;-65
2022/06/01 10:20:47;;;;;;;4.10;1.02;;;;;;;20.90;33.61;97184.72;5061423;28;20048;-64
2022/06/01 10:23:22;;;;;;;3.83;1.00;;;;;;;20.96;32.57;97195.59;5070257;28;20044;-64
2022/06/01 10:25:56;;;;;;;3.17;1.08;;;;;;;20.91;32.29;97196.53;5057429;28;20068;-64
2022/06/01 10:28:31;;;;;;;4.85;1.40;;;;;;;21.00;33.10;97183.59;5062883;28;20583;-64
2022/06/01 10:31:35;;;;;;;3.45;0.95;;;;;;;20.82;32.67;97188.25;5059104;28;20551;-65
2022/06/01 10:34:45;;;;;;;3.75;1.15;;;;;;;20.79;33.14;97178.72;5062521;28;20469;-65
2022/06/01 10:37:36;;;;;;;2.15;1.00;;;;;;;20.87;33.09;97190.03;5062500;28;20044;-65
2022/06/01 10:40:16;;;;;;;3.90;1.00;;;;;;;21.16;33.23;97189.38;5063131;28;20063;-65
2022/06/01 10:43:17;;;;;;;3.40;0.98;;;;;;;21.22;31.68;97201.03;5070496;28;20055;-65
2022/06/01 10:45:52;;;;;;;2.17;0.90;;;;;;;20.73;32.24;97191.03;5064147;28;20048;-65
2022/06/01 10:48:40;;;;;;;2.22;0.98;;;;;;;21.10;32.82;97190.69;5065689;28;20198;-65
2022/06/01 10:51:13;;;;;;;1.65;1.05;;;;;;;21.23;32.99;97197.16;5068860;28;20064;-64
2022/06/01 10:54:04;;;;;;;4.10;1.17;;;;;;;21.46;32.24;97196.13;5060720;28;20044;-64
2022/06/01 10:56:31;;;;;;;1.95;0.90;;;;;;;21.73;31.67;97189.44;5068806;28;20448;-64
2022/06/01 10:59:02;;;;;;;1.45;0.77;;;;;;;21.46;31.69;97198.88;5062328;28;20110;-65
2022/06/01 11:02:03;;;;;;;1.50;0.98;;;;;;;21.81;32.21;97198.78;5063722;28;20056;-65
2022/06/01 11:04:44;;;;;;;2.53;0.80;;;;;;;21.85;32.68;97197.00;5072800;28;20040;-65
2022/06/01 11:07:22;;;;;;;3.28;1.02;;;;;;;21.39;32.30;97188.38;5070125;28;20044;-65
2022/06/01 11:10:04;;;;;;;2.05;1.38;;;;;;;21.08;33.36;97194.91;5062731;28;20037;-65
2022/06/01 11:12:46;;;;;;;2.47;1.08;;;;;;;21.28;32.65;97188.72;5064555;28;20052;-64
2022/06/01 11:15:28;;;;;;;3.83;1.10;;;;;;;21.28;33.02;97187.91;5071123;28;20043;-65
2022/06/01 11:18:04;;;;;;;2.33;0.88;;;;;;;21.19;31.81;97193.44;5067181;28;20561;-65
2022/06/01 11:20:36;;;;;;;4.78;1.10;;;;;;;21.72;31.07;97195.22;5065404;28;20044;-65
2022/06/01 11:23:15;;;;;;;4.30;1.08;;;;;;;21.82;32.22;97179.16;5052108;28;20093;-65
2022/06/01 11:26:10;;;;;;;3.17;1.75;;;;;;;21.22;30.70;97189.25;5063523;28;20048;-65
2022/06/01 11:28:40;;;;;;;2.35;1.17;;;;;;;21.27;30.06;97198.09;5065718;28;20045;-65
2022/06/01 11:31:22;;;;;;;2.47;0.82;;;;;;;21.37;30.01;97177.69;5071069;28;20044;-64
2022/06/01 11:34:12;;;;;;;1.30;0.80;;;;;;;21.88;29.96;97182.56;5074739;28;20046;-65
2022/06/01 11:36:39;;;;;;;2.80;1.00;;;;;;;22.10;31.51;97183.41;5064191;28;20508;-64
2022/06/01 11:39:43;;;;;;;1.67;0.88;;;;;;;21.81;31.63;97174.81;5070350;28;20047;-65
2022/06/01 11:42:19;;;;;;;2.15;1.10;;;;;;;21.63;32.00;97182.31;5066346;28;20044;-65
2022/06/01 11:45:22;;;;;;;3.20;1.30;;;;;;;21.99;33.15;97176.66;5065727;28;20102;-65
2022/06/01 11:47:52;;;;;;;2.00;1.02;;;;;;;;;;5071869;28;20047;-65
2022/06/01 11:50:24;;;;;;;1.73;1.00;;;;;;;22.02;32.97;97162.22;5067797;28;20048;-65
2022/06/01 11:53:14;;;;;;;2.30;0.98;;;;;;;22.08;32.97;97178.22;5067017;28;20570;-65
2022/06/01 11:55:45;;;;;;;2.72;1.10;;;;;;;21.79;33.23;97177.09;5057320;28;20048;-65
2022/06/01 11:58:39;;;;;;;5.28;1.17;;;;;;;21.78;32.73;97178.22;5057373;28;20040;-65
2022/06/01 12:01:16;;;;;;;9.55;1.48;;;;;;;22.31;32.95;97157.81;5060512;28;20048;-65
2022/06/01 12:03:53;;;;;;;2.55;1.10;;;;;;;22.84;33.02;97154.69;5062497;28;20041;-65
2022/06/01 12:06:42;;;;;;;3.42;1.10;;;;;;;23.13;31.85;97173.09;5068466;28;20418;-65
2022/06/01 12:09:30;;;;;;;2.28;1.08;;;;;;;22.69;31.96;97161.63;5059072;28;20768;-65
2022/06/01 12:11:57;;;;;;;3.13;1.15;;;;;;;23.11;31.67;97158.81;5076187;28;20830;-65
2022/06/01 12:14:38;;;;;;;4.60;1.30;;;;;;;22.70;31.30;97166.81;5064637;28;20049;-65
2022/06/01 12:17:17;;;;;;;4.10;1.60;;;;;;;22.78;31.07;97165.13;5055358;28;20041;-65
2022/06/01 12:19:50;;;;;;;3.10;1.10;;;;;;;22.90;31.92;97153.34;5064957;28;20044;-66
2022/06/01 12:28:59;;;;;;;3.83;1.05;;;;;;;22.69;32.95;97145.06;5053695;28;20064;-65
2022/06/01 12:31:30;;;;;;;4.93;1.57;;;;;;;21.94;33.29;97153.69;5060963;28;20051;-65
2022/06/01 12:34:03;;;;;;;3.45;1.40;;;;;;;21.52;33.89;97164.53;5060838;28;20052;-65
2022/06/01 12:36:36;;;;;;;6.07;1.38;;;;;;;21.46;34.58;97161.16;5063603;28;20055;-65